Time;durP1;ratioP1;P1;durP2;ratioP2;P2;SDS_P1;SDS_P2;PMS_P1;PMS_P2;Temp;Humidity;BMP_temperature;BMP_pressure;BME280_temperature;BME280_humidity;BME280_pressure;Samples;Min_cycle;Max_cycle;Signal;HPM_P1;HPM_P2
2022/12/28 00:02:01;;;;;;;14.80;4.65;;;5.50;99.90;;;;;;5013706;28;20045;-87
2022/12/28 00:04:27;;;;;;;9.07;4.18;;;5.50;99.90;;;;;;4997892;28;20041;-87
2022/12/28 00:06:52;;;;;;;13.77;4.43;;;5.50;99.90;;;;;;5012532;28;20038;-87
2022/12/28 00:09:18;;;;;;;14.18;4.60;;;5.50;99.90;;;;;;5008078;28;20042;-87
2022/12/28 00:11:44;;;;;;;14.20;4.95;;;5.50;99.90;;;;;;5010712;28;20038;-88
2022/12/28 00:14:09;;;;;;;11.15;4.75;;;5.50;99.90;;;;;;5012854;28;20041;-88
2022/12/28 00:16:40;;;;;;;9.57;4.28;;;5.50;99.90;;;;;;5013814;28;20080;-87
2022/12/28 00:19:17;;;;;;;10.88;4.55;;;5.50;99.90;;;;;;5019488;28;20056;-87
2022/12/28 00:21:44;;;;;;;14.13;4.93;;;5.50;99.90;;;;;;5015611;28;20096;-87
2022/12/28 00:24:21;;;;;;;9.38;4.90;;;5.40;99.90;;;;;;5011164;28;20030;-88
2022/12/28 00:26:47;;;;;;;10.60;4.25;;;5.40;99.90;;;;;;5010245;28;20548;-87
2022/12/28 00:29:14;;;;;;;10.25;4.88;;;5.40;99.90;;;;;;5032450;28;20034;-87
2022/12/28 00:31:39;;;;;;;9.90;4.60;;;5.40;99.90;;;;;;5009075;28;20065;-87
2022/12/28 00:34:05;;;;;;;13.80;5.30;;;5.40;99.90;;;;;;5012265;28;20076;-88
2022/12/28 00:36:31;;;;;;;13.10;4.72;;;5.40;99.90;;;;;;5010605;28;20611;-88
2022/12/28 00:38:57;;;;;;;8.55;4.88;;;5.40;99.90;;;;;;5014466;28;20146;-87
2022/12/28 00:41:23;;;;;;;16.73;4.93;;;5.40;99.90;;;;;;5015953;28;20500;-87
2022/12/28 00:43:48;;;;;;;10.48;4.28;;;5.40;99.90;;;;;;5013572;28;20034;-87
2022/12/28 00:46:14;;;;;;;12.98;4.85;;;5.40;99.90;;;;;;5019651;28;20044;-87
2022/12/28 00:48:40;;;;;;;11.63;4.53;;;5.40;99.90;;;;;;5012705;28;20045;-87
2022/12/28 00:51:09;;;;;;;9.90;4.90;;;5.40;99.90;;;;;;5015469;28;20370;-88
2022/12/28 00:53:35;;;;;;;11.18;4.95;;;5.40;99.90;;;;;;5010313;28;20038;-88
2022/12/28 00:56:08;;;;;;;11.23;5.13;;;5.40;99.90;;;;;;5010522;28;20319;-87
2022/12/28 00:58:34;;;;;;;14.02;5.93;;;5.40;99.90;;;;;;5013421;28;20178;-87
2022/12/28 01:01:00;;;;;;;13.85;5.78;;;5.40;99.90;;;;;;5013877;28;20089;-88
2022/12/28 01:03:26;;;;;;;11.48;6.03;;;5.40;99.90;;;;;;5018806;28;20077;-87
2022/12/28 01:05:51;;;;;;;11.15;5.93;;;5.40;99.90;;;;;;5008832;28;20088;-87
2022/12/28 01:08:17;;;;;;;15.07;6.05;;;5.40;99.90;;;;;;4995439;28;20041;-87
2022/12/28 01:10:42;;;;;;;12.38;5.97;;;5.40;99.90;;;;;;5014581;28;20068;-88
2022/12/28 01:13:08;;;;;;;14.25;5.68;;;6.00;99.90;;;;;;5010346;28;20096;-88
2022/12/28 01:15:34;;;;;;;10.75;5.45;;;5.40;99.90;;;;;;5014867;28;20439;-87
2022/12/28 01:17:59;;;;;;;12.65;5.15;;;5.40;99.90;;;;;;5010271;28;20038;-88
2022/12/28 01:20:25;;;;;;;15.13;5.97;;;5.50;99.90;;;;;;5014474;28;20592;-87
2022/12/28 01:22:51;;;;;;;10.77;4.85;;;5.40;99.90;;;;;;5010201;28;20108;-88
2022/12/28 01:25:16;;;;;;;12.45;5.05;;;5.50;99.90;;;;;;5011971;28;20038;-87
2022/12/28 01:27:42;;;;;;;10.93;4.70;;;5.40;99.90;;;;;;5010099;28;20120;-87
2022/12/28 01:30:09;;;;;;;12.30;4.68;;;5.40;99.90;;;;;;5012933;28;20030;-87
2022/12/28 01:32:35;;;;;;;10.27;4.53;;;5.40;99.90;;;;;;5022269;28;20540;-87
2022/12/28 01:35:01;;;;;;;9.85;4.68;;;5.50;99.90;;;;;;5012919;28;20126;-88
2022/12/28 01:37:26;;;;;;;11.07;5.40;;;5.50;99.90;;;;;;5014131;28;20034;-87
2022/12/28 01:39:52;;;;;;;13.40;5.47;;;5.50;99.90;;;;;;5019236;28;20041;-87
2022/12/28 01:42:19;;;;;;;8.13;5.38;;;5.50;99.90;;;;;;5006948;28;20085;-87
2022/12/28 01:44:51;;;;;;;18.67;7.03;;;5.50;99.90;;;;;;5030199;28;20041;-87
2022/12/28 01:47:35;;;;;;;11.35;5.28;;;5.50;99.90;;;;;;5013152;28;20174;-87
2022/12/28 01:50:23;;;;;;;9.50;4.90;;;5.50;99.90;;;;;;5009277;28;20034;-87
2022/12/28 01:53:06;;;;;;;14.27;4.93;;;5.50;99.90;;;;;;5022661;28;20411;-86
2022/12/28 01:55:34;;;;;;;14.57;6.30;;;5.60;99.90;;;;;;5024816;28;20487;-87
2022/12/28 01:58:08;;;;;;;14.05;5.75;;;5.60;99.90;;;;;;5013277;28;20069;-87
2022/12/28 02:00:34;;;;;;;11.65;5.28;;;5.60;99.90;;;;;;5016754;28;20048;-86
2022/12/28 02:03:07;;;;;;;11.80;6.00;;;5.60;99.90;;;;;;5016245;28;20091;-87
2022/12/28 02:05:37;;;;;;;11.57;6.18;;;5.70;99.90;;;;;;5016200;28;20045;-87
2022/12/28 02:08:07;;;;;;;10.90;6.50;;;5.60;99.90;;;;;;5012735;28;20484;-87
2022/12/28 02:10:34;;;;;;;16.10;6.47;;;5.60;99.90;;;;;;5008757;28;20038;-86
2022/12/28 02:13:00;;;;;;;9.95;6.03;;;5.60;99.90;;;;;;5012357;28;20473;-87
2022/12/28 02:15:26;;;;;;;10.70;6.50;;;5.60;99.90;;;;;;5019535;28;20041;-86
2022/12/28 02:17:52;;;;;;;14.35;6.68;;;5.60;99.90;;;;;;5019752;28;20045;-87
2022/12/28 02:20:18;;;;;;;11.65;6.20;;;5.60;99.90;;;;;;5009083;28;20087;-87
2022/12/28 02:22:57;;;;;;;10.63;6.32;;;5.70;99.90;;;;;;5009871;28;20113;-86
2022/12/28 02:25:54;;;;;;;12.27;6.15;;;5.60;99.90;;;;;;5010783;28;20037;-87
2022/12/28 02:28:38;;;;;;;13.98;7.13;;;5.70;99.90;;;;;;5013039;28;20038;-87
2022/12/28 02:31:27;;;;;;;14.95;7.13;;;5.70;99.90;;;;;;5008228;28;20042;-87
2022/12/28 02:34:07;;;;;;;12.65;6.72;;;5.80;99.90;;;;;;5013289;28;20046;-87
2022/12/28 02:36:40;;;;;;;14.40;6.60;;;5.70;99.90;;;;;;5017705;28;20051;-86
2022/12/28 02:39:12;;;;;;;11.88;5.50;;;5.70;99.90;;;;;;5016106;28;20811;-87
2022/12/28 02:41:40;;;;;;;13.30;7.00;;;5.70;99.90;;;;;;5020256;28;20041;-87
2022/12/28 02:44:06;;;;;;;13.07;6.90;;;5.70;99.90;;;;;;5016820;28;20037;-88
2022/12/28 02:52:22;;;;;;;13.07;7.13;;;5.70;99.90;;;;;;5033657;28;20128;-88
2022/12/28 02:58:00;;;;;;;11.25;6.10;;;5.70;99.90;;;;;;5014857;28;20050;-88
2022/12/28 03:00:52;;;;;;;11.55;6.45;;;5.70;99.90;;;;;;5014961;28;20045;-87
2022/12/28 03:03:49;;;;;;;11.20;6.00;;;5.70;99.90;;;;;;5016449;28;20045;-87
2022/12/28 03:09:30;;;;;;;9.57;6.43;;;5.80;99.90;;;;;;5029260;28;20033;-87
2022/12/28 03:12:03;;;;;;;10.38;6.70;;;6.30;99.90;;;;;;5011750;28;20042;-87
2022/12/28 03:14:36;;;;;;;10.82;5.40;;;5.80;99.90;;;;;;5015034;28;20060;-88
2022/12/28 03:31:07;;;;;;;13.30;7.03;;;5.90;99.90;;;;;;5010964;28;20493;-88
2022/12/28 03:33:46;;;;;;;15.50;7.30;;;6.00;99.90;;;;;;5012447;28;20489;-88
2022/12/28 03:36:24;;;;;;;12.85;7.72;;;5.90;99.90;;;;;;5005521;28;20052;-88
2022/12/28 03:39:18;;;;;;;13.57;7.82;;;6.00;99.90;;;;;;5015288;28;20052;-87
2022/12/28 03:41:49;;;;;;;14.68;7.57;;;6.00;99.90;;;;;;5003634;28;20130;-88
2022/12/28 03:44:25;;;;;;;13.07;7.55;;;6.40;99.90;;;;;;5014499;28;20470;-88
2022/12/28 03:47:09;;;;;;;17.10;8.27;;;6.00;99.90;;;;;;5012093;28;20069;-88
2022/12/28 03:49:35;;;;;;;11.85;7.65;;;6.10;99.90;;;;;;5013291;28;20109;-88
2022/12/28 03:52:02;;;;;;;12.25;7.47;;;6.10;99.90;;;;;;5013442;28;20205;-89
2022/12/28 03:54:28;;;;;;;13.18;7.47;;;6.20;99.90;;;;;;5015052;28;20049;-88
2022/12/28 03:56:53;;;;;;;11.52;7.32;;;6.20;99.90;;;;;;5016498;28;20518;-89
2022/12/28 03:59:19;;;;;;;10.98;6.80;;;6.50;99.90;;;;;;5004157;28;20067;-88
2022/12/28 04:01:44;;;;;;;15.80;7.68;;;6.20;99.90;;;;;;5019427;28;20049;-88
2022/12/28 04:04:11;;;;;;;13.30;7.47;;;6.20;99.90;;;;;;5019104;28;20049;-88
2022/12/28 04:06:36;;;;;;;12.18;6.90;;;6.20;99.90;;;;;;5013086;28;20041;-88
2022/12/28 04:09:03;;;;;;;13.75;7.22;;;6.30;99.90;;;;;;5012883;28;20037;-88
2022/12/28 04:11:29;;;;;;;11.13;6.43;;;6.30;99.90;;;;;;5034350;28;20026;-89
2022/12/28 04:13:54;;;;;;;12.07;7.05;;;6.30;99.90;;;;;;5002794;28;20803;-88
2022/12/28 04:16:20;;;;;;;11.05;6.63;;;6.30;99.90;;;;;;5035830;28;20029;-88
2022/12/28 04:18:46;;;;;;;10.95;6.65;;;6.30;99.90;;;;;;5017545;28;20065;-89
2022/12/28 04:21:13;;;;;;;10.75;6.68;;;6.40;99.90;;;;;;5020538;28;20095;-88
2022/12/28 04:23:39;;;;;;;9.80;7.10;;;6.40;99.90;;;;;;5017386;28;20041;-89
2022/12/28 04:26:12;;;;;;;11.45;6.57;;;6.40;99.90;;;;;;5014911;28;20046;-89
2022/12/28 04:28:38;;;;;;;9.40;5.65;;;6.40;99.90;;;;;;5011884;28;20378;-87
2022/12/28 04:31:05;;;;;;;12.20;6.10;;;6.40;99.90;;;;;;5016656;28;20396;-87
2022/12/28 04:33:33;;;;;;;9.18;5.47;;;6.50;99.90;;;;;;5020962;28;20036;-89
2022/12/28 04:36:07;;;;;;;8.07;5.20;;;6.50;99.90;;;;;;5011516;28;20507;-88
2022/12/28 04:38:33;;;;;;;8.45;4.72;;;6.50;99.90;;;;;;5017473;28;20045;-89
2022/12/28 04:40:59;;;;;;;7.53;4.90;;;6.50;99.90;;;;;;5014177;28;20061;-88
2022/12/28 04:43:25;;;;;;;8.68;5.60;;;6.60;99.90;;;;;;5017936;28;20045;-89
2022/12/28 04:46:05;;;;;;;8.18;5.25;;;6.60;99.90;;;;;;5009691;28;20088;-89
2022/12/28 04:48:32;;;;;;;8.57;5.60;;;6.60;99.90;;;;;;5015735;28;20037;-90
2022/12/28 04:51:04;;;;;;;8.25;5.15;;;6.60;99.90;;;;;;5015716;28;20041;-89
2022/12/28 04:53:29;;;;;;;9.65;5.57;;;6.60;99.90;;;;;;5014476;28;20033;-88
2022/12/28 04:55:57;;;;;;;8.90;5.55;;;6.60;99.90;;;;;;5012084;28;20397;-88
2022/12/28 04:58:25;;;;;;;6.80;4.55;;;6.60;99.90;;;;;;5015526;28;20045;-89
2022/12/28 05:00:51;;;;;;;7.22;4.72;;;6.70;99.90;;;;;;5025610;28;20093;-90
2022/12/28 05:03:16;;;;;;;9.02;5.60;;;6.60;99.90;;;;;;5018429;28;20069;-90
2022/12/28 05:05:42;;;;;;;11.18;5.78;;;6.70;99.90;;;;;;5010989;28;20076;-89
2022/12/28 05:08:08;;;;;;;9.73;6.47;;;6.70;99.90;;;;;;5022553;28;20064;-88
2022/12/28 05:10:33;;;;;;;10.18;5.63;;;6.80;99.90;;;;;;5012834;28;20037;-92
2022/12/28 05:12:59;;;;;;;10.10;5.93;;;6.80;99.90;;;;;;5011003;28;20041;-90
2022/12/28 05:15:24;;;;;;;11.23;6.95;;;6.80;99.90;;;;;;5022646;28;20112;-89
2022/12/28 05:17:50;;;;;;;9.68;6.78;;;6.80;99.90;;;;;;5024558;28;20400;-90
2022/12/28 05:20:18;;;;;;;9.52;6.32;;;6.80;99.90;;;;;;5011052;28;20480;-91
2022/12/28 05:22:44;;;;;;;10.65;6.43;;;6.90;99.90;;;;;;5011136;28;20042;-91
2022/12/28 05:25:10;;;;;;;10.60;7.00;;;6.90;99.90;;;;;;5016889;28;20119;-90
2022/12/28 05:27:35;;;;;;;11.85;6.75;;;6.80;99.90;;;;;;5018167;28;20045;-90
2022/12/28 05:30:01;;;;;;;10.85;7.22;;;6.90;99.90;;;;;;5014283;28;20038;-91
2022/12/28 05:32:26;;;;;;;11.63;7.55;;;7.00;99.90;;;;;;5015603;28;20040;-90
2022/12/28 05:34:52;;;;;;;12.93;7.70;;;7.00;99.90;;;;;;5017130;28;20794;-90
2022/12/28 05:37:18;;;;;;;13.40;8.35;;;7.00;99.90;;;;;;5020476;28;20069;-90
2022/12/28 05:39:43;;;;;;;17.00;8.82;;;7.00;99.90;;;;;;5035061;28;20046;-90
2022/12/28 05:42:09;;;;;;;13.70;8.95;;;7.00;99.90;;;;;;5019662;28;20073;-90
2022/12/28 05:44:35;;;;;;;13.20;8.65;;;7.10;99.90;;;;;;5016305;28;20037;-89
2022/12/28 05:47:00;;;;;;;12.82;8.48;;;7.10;99.90;;;;;;5023374;28;20467;-90
2022/12/28 05:49:27;;;;;;;11.85;8.90;;;7.10;99.90;;;;;;5018126;28;20042;-90
2022/12/28 05:51:53;;;;;;;12.20;7.70;;;7.20;99.90;;;;;;5029076;28;20100;-89
2022/12/28 05:54:18;;;;;;;13.52;9.13;;;7.20;99.90;;;;;;5016375;28;20046;-90
2022/12/28 05:56:45;;;;;;;13.77;8.75;;;7.20;99.90;;;;;;5018480;28;20120;-90
2022/12/28 05:59:12;;;;;;;13.07;9.55;;;7.20;99.90;;;;;;5011126;28;20088;-90
2022/12/28 06:01:39;;;;;;;16.70;9.98;;;7.30;99.90;;;;;;5010931;28;20050;-90
2022/12/28 06:04:10;;;;;;;15.88;10.02;;;7.90;99.90;;;;;;5028488;28;20551;-92
2022/12/28 06:06:36;;;;;;;15.98;10.43;;;7.30;99.90;;;;;;5026975;28;20032;-90
2022/12/28 06:09:03;;;;;;;15.23;10.30;;;7.40;99.90;;;;;;5022679;28;20101;-93
2022/12/28 06:11:29;;;;;;;18.30;11.57;;;7.40;99.90;;;;;;5030411;28;20041;-92
2022/12/28 06:13:56;;;;;;;15.20;11.07;;;7.40;99.90;;;;;;5016233;28;20488;-90
2022/12/28 06:16:24;;;;;;;13.13;9.60;;;7.50;99.90;;;;;;5021909;28;20048;-91
2022/12/28 06:18:53;;;;;;;16.95;9.65;;;7.50;99.90;;;;;;5023444;28;20175;-92
2022/12/28 06:21:25;;;;;;;17.17;10.82;;;7.60;99.90;;;;;;5014888;28;20072;-93
2022/12/28 06:23:51;;;;;;;15.02;9.82;;;8.20;99.90;;;;;;5021536;28;20488;-93
2022/12/28 06:26:19;;;;;;;17.10;10.02;;;7.60;99.90;;;;;;5018281;28;20172;-91
2022/12/28 06:28:45;;;;;;;13.65;9.48;;;7.60;99.90;;;;;;5017230;28;20094;-90
2022/12/28 06:31:17;;;;;;;12.55;8.60;;;7.60;99.90;;;;;;5014225;28;20038;-92
2022/12/28 06:33:43;;;;;;;13.68;8.50;;;7.60;99.90;;;;;;5022243;28;20050;-92
2022/12/28 06:36:17;;;;;;;12.90;8.48;;;7.70;99.90;;;;;;5020380;28;20488;-90
2022/12/28 06:38:44;;;;;;;11.95;8.85;;;7.70;99.90;;;;;;5019991;28;20054;-91
2022/12/28 06:41:11;;;;;;;10.85;7.38;;;7.70;99.90;;;;;;5022132;28;20092;-94
2022/12/28 06:43:39;;;;;;;12.18;7.50;;;7.70;99.90;;;;;;5013938;28;20100;-90
2022/12/28 06:46:05;;;;;;;10.55;6.95;;;7.70;99.90;;;;;;5014683;28;20034;-92
2022/12/28 06:48:32;;;;;;;12.35;7.50;;;7.70;99.90;;;;;;5015885;28;20090;-92
2022/12/28 06:51:03;;;;;;;9.52;5.57;;;7.70;99.90;;;;;;5020365;28;20041;-91
2022/12/28 06:53:31;;;;;;;11.40;7.57;;;7.70;99.90;;;;;;5031255;28;20125;-92
2022/12/28 06:56:00;;;;;;;11.15;7.40;;;7.80;99.90;;;;;;5020038;28;20528;-91
2022/12/28 06:58:27;;;;;;;12.73;8.77;;;8.20;99.90;;;;;;5009882;28;20049;-91
2022/12/28 07:00:53;;;;;;;12.07;7.47;;;7.80;99.90;;;;;;5015516;28;20046;-91
2022/12/28 07:03:20;;;;;;;11.85;8.45;;;7.80;99.90;;;;;;5014249;28;20037;-92
2022/12/28 07:05:46;;;;;;;15.55;8.77;;;7.80;99.90;;;;;;5018686;28;20048;-91
2022/12/28 07:08:11;;;;;;;12.80;8.43;;;7.80;99.90;;;;;;5032763;28;20037;-91
2022/12/28 07:10:37;;;;;;;13.20;8.60;;;7.90;99.90;;;;;;5020784;28;20113;-91
2022/12/28 07:13:03;;;;;;;10.90;7.93;;;7.80;99.90;;;;;;5018322;28;20495;-91
2022/12/28 07:15:29;;;;;;;12.45;7.55;;;7.80;99.90;;;;;;5029436;28;20038;-91
2022/12/28 07:17:56;;;;;;;12.10;8.48;;;7.90;99.90;;;;;;5013921;28;20377;-93
2022/12/28 07:53:20;;;;;;;15.45;10.38;;;8.10;99.90;;;;;;4939863;29;20059;-95
2022/12/28 07:55:55;;;;;;;18.73;11.35;;;9.10;99.90;;;;;;4943096;29;20051;-95
2022/12/28 07:58:21;;;;;;;19.45;11.68;;;9.10;99.90;;;;;;4919594;29;20079;-95
2022/12/28 08:00:50;;;;;;;18.45;11.45;;;9.20;99.90;;;;;;4924436;29;20047;-94
2022/12/28 08:03:19;;;;;;;18.55;11.88;;;9.40;99.90;;;;;;4910591;29;20042;-95
2022/12/28 08:05:45;;;;;;;15.10;9.98;;;8.20;99.90;;;;;;4947654;29;20051;-96
2022/12/28 08:23:57;;;;;;;12.95;8.85;;;8.20;99.90;;;;;;5186752;23;20053;-93
2022/12/28 08:26:34;;;;;;;13.55;8.98;;;9.50;99.90;;;;;;5002567;28;20106;-94
2022/12/28 08:29:03;;;;;;;14.75;9.73;;;9.50;99.90;;;;;;4987227;28;20042;-95
2022/12/28 08:31:32;;;;;;;13.77;9.75;;;8.10;99.90;;;;;;4977956;28;20405;-95
2022/12/28 08:34:00;;;;;;;14.82;9.48;;;8.40;99.90;;;;;;4999399;28;20050;-95
2022/12/28 08:36:26;;;;;;;14.07;9.38;;;8.20;99.90;;;;;;4989044;28;20041;-96
2022/12/28 08:54:01;;;;;;;14.77;8.48;;;8.30;99.90;;;;;;5631815;23;20187;-94
2022/12/28 08:56:33;;;;;;;11.27;7.50;;;8.30;99.90;;;;;;4951778;28;20088;-94
2022/12/28 08:59:00;;;;;;;11.68;6.93;;;8.30;99.90;;;;;;4985052;28;20042;-94
2022/12/28 09:01:32;;;;;;;10.70;6.90;;;9.50;99.90;;;;;;4983416;28;20039;-95
2022/12/28 09:04:09;;;;;;;10.70;6.40;;;8.40;99.90;;;;;;4971382;28;20085;-95
2022/12/28 09:06:53;;;;;;;11.02;6.78;;;8.30;99.90;;;;;;4986210;28;20249;-94
2022/12/28 09:09:20;;;;;;;9.02;6.45;;;8.40;99.90;;;;;;4979327;28;20521;-96
2022/12/28 09:11:47;;;;;;;9.35;5.82;;;8.90;99.90;;;;;;4962398;28;20042;-96
2022/12/28 09:14:14;;;;;;;11.35;6.00;;;9.70;99.90;;;;;;4970184;28;20053;-93
2022/12/28 09:16:42;;;;;;;10.50;5.47;;;8.30;99.90;;;;;;4970426;28;20115;-86
2022/12/28 09:19:14;;;;;;;8.75;4.60;;;8.60;99.90;;;;;;4987582;28;20090;-95
2022/12/28 09:21:41;;;;;;;7.72;5.00;;;7.60;99.90;;;;;;4972212;28;20054;-96
2022/12/28 09:29:34;;;;;;;7.53;4.97;;;8.40;99.90;;;;;;5657256;23;20061;-89
2022/12/28 09:32:00;;;;;;;8.88;5.07;;;9.60;99.90;;;;;;4995673;28;20125;-86
2022/12/28 09:34:31;;;;;;;8.25;5.15;;;8.40;99.90;;;;;;4980365;28;20061;-87
2022/12/28 09:36:57;;;;;;;8.13;5.40;;;8.50;99.90;;;;;;4974271;28;20047;-87
2022/12/28 09:39:23;;;;;;;9.95;5.28;;;8.60;99.90;;;;;;4987830;28;20042;-86
2022/12/28 09:41:57;;;;;;;9.73;5.53;;;8.50;99.90;;;;;;4974658;28;20121;-84
2022/12/28 09:44:42;;;;;;;8.47;5.77;;;8.50;99.90;;;;;;4997654;28;20493;-84
2022/12/28 09:47:23;;;;;;;9.05;5.93;;;8.50;99.90;;;;;;5001404;28;20088;-83
2022/12/28 09:50:00;;;;;;;10.75;5.53;;;8.50;99.90;;;;;;5000232;28;20505;-84
2022/12/28 09:52:30;;;;;;;10.60;6.03;;;8.60;99.90;;;;;;4981366;28;20436;-84
2022/12/28 09:55:11;;;;;;;9.50;5.13;;;8.60;99.90;;;;;;4996736;28;20054;-85
2022/12/28 09:57:41;;;;;;;11.23;5.78;;;8.60;99.90;;;;;;4977161;28;20443;-84
2022/12/28 10:00:14;;;;;;;8.38;5.15;;;8.60;99.90;;;;;;4979925;28;20162;-86
2022/12/28 10:02:41;;;;;;;10.98;6.38;;;8.60;99.90;;;;;;4966347;28;20068;-86
2022/12/28 10:05:07;;;;;;;12.00;5.25;;;8.60;99.90;;;;;;4982678;28;20030;-84
2022/12/28 10:07:32;;;;;;;8.35;5.32;;;8.60;99.90;;;;;;4983572;28;20053;-83
2022/12/28 10:09:58;;;;;;;7.97;5.03;;;8.90;99.90;;;;;;4987604;28;20751;-83
2022/12/28 10:12:24;;;;;;;7.63;4.90;;;8.60;99.90;;;;;;4974668;28;20222;-83
2022/12/28 10:14:52;;;;;;;10.00;5.82;;;8.70;99.90;;;;;;4995469;28;20042;-83
2022/12/28 10:17:24;;;;;;;9.20;5.13;;;8.60;99.90;;;;;;4995859;28;20092;-83
2022/12/28 10:19:51;;;;;;;8.60;5.43;;;8.70;99.90;;;;;;5002535;28;20397;-84
2022/12/28 10:22:19;;;;;;;9.13;5.95;;;8.70;99.90;;;;;;4986058;28;20053;-83
2022/12/28 10:24:46;;;;;;;10.40;6.00;;;9.10;99.90;;;;;;4979367;28;20046;-82
2022/12/28 10:27:23;;;;;;;11.23;6.75;;;9.00;99.90;;;;;;4984316;28;20065;-82
2022/12/28 10:29:51;;;;;;;11.55;6.05;;;8.80;99.90;;;;;;4993649;28;20119;-82
2022/12/28 10:32:18;;;;;;;11.82;5.97;;;8.70;99.90;;;;;;4998218;28;20456;-82
2022/12/28 10:35:01;;;;;;;9.45;5.63;;;8.80;99.90;;;;;;5002784;28;20038;-81
2022/12/28 10:37:30;;;;;;;9.85;5.75;;;9.60;99.90;;;;;;4999177;28;20031;-82
2022/12/28 10:40:02;;;;;;;9.82;5.85;;;8.80;99.90;;;;;;5005319;28;20038;-82
2022/12/28 10:42:39;;;;;;;10.48;5.03;;;8.80;99.90;;;;;;4984059;28;20048;-83
2022/12/28 10:45:15;;;;;;;9.85;5.22;;;8.90;99.90;;;;;;4984575;28;20574;-82
2022/12/28 10:47:45;;;;;;;9.50;4.47;;;8.80;99.90;;;;;;5002316;28;20084;-82
2022/12/28 10:50:55;;;;;;;7.40;4.05;;;8.90;99.90;;;;;;4996269;28;20065;-82
2022/12/28 10:53:24;;;;;;;7.82;4.15;;;8.90;99.90;;;;;;4972092;28;20048;-82
2022/12/28 10:56:05;;;;;;;7.32;4.63;;;9.10;99.90;;;;;;4996762;28;20121;-82
2022/12/28 10:58:31;;;;;;;7.20;4.32;;;8.90;99.90;;;;;;4997002;28;20034;-81
2022/12/28 11:01:16;;;;;;;7.13;4.00;;;9.00;99.90;;;;;;4982624;28;20045;-81
2022/12/28 11:03:54;;;;;;;6.93;4.18;;;9.30;99.90;;;;;;4982494;28;20038;-82
2022/12/28 11:06:22;;;;;;;7.05;3.70;;;9.00;99.90;;;;;;4993497;28;20077;-82
2022/12/28 11:09:11;;;;;;;7.10;3.60;;;9.00;99.90;;;;;;4975252;28;20051;-82
2022/12/28 11:11:36;;;;;;;7.45;3.92;;;9.00;99.90;;;;;;4978197;28;20060;-82
2022/12/28 11:14:12;;;;;;;6.38;4.20;;;9.00;99.90;;;;;;4980167;28;20034;-82
2022/12/28 11:16:40;;;;;;;7.10;3.90;;;9.00;99.90;;;;;;5001609;28;20046;-82
2022/12/28 11:19:06;;;;;;;6.97;4.13;;;9.00;99.90;;;;;;4996970;28;20085;-80
2022/12/28 11:21:33;;;;;;;7.03;4.07;;;9.00;99.90;;;;;;4979484;28;20103;-81
2022/12/28 11:23:59;;;;;;;7.63;4.22;;;9.00;99.90;;;;;;4994356;28;20042;-81
2022/12/28 11:26:27;;;;;;;6.20;3.63;;;9.60;99.90;;;;;;4995559;28;20483;-80
2022/12/28 11:28:53;;;;;;;8.15;4.35;;;9.10;99.90;;;;;;4993553;28;20042;-81
2022/12/28 11:31:33;;;;;;;6.97;4.05;;;9.00;99.90;;;;;;4995230;28;20069;-80
2022/12/28 11:34:03;;;;;;;6.82;3.83;;;9.00;99.90;;;;;;4996910;28;20025;-80
2022/12/28 11:36:30;;;;;;;5.70;3.78;;;9.10;99.90;;;;;;5000088;28;20144;-81
2022/12/28 11:38:57;;;;;;;7.50;4.25;;;9.40;99.90;;;;;;4992105;28;20034;-82
2022/12/28 11:41:22;;;;;;;7.57;3.95;;;10.00;99.90;;;;;;4998935;28;20042;-80
2022/12/28 11:43:53;;;;;;;5.28;3.10;;;9.10;99.90;;;;;;4979232;28;20049;-83
2022/12/28 11:46:21;;;;;;;6.35;3.08;;;9.10;99.90;;;;;;4992426;28;20045;-81
2022/12/28 11:48:55;;;;;;;6.25;3.33;;;9.10;99.90;;;;;;4995675;28;20548;-81
2022/12/28 11:51:28;;;;;;;6.55;3.60;;;9.10;99.90;;;;;;4997303;28;20034;-81
2022/12/28 11:54:15;;;;;;;5.68;2.92;;;9.00;99.90;;;;;;4994563;28;20416;-81
2022/12/28 11:56:44;;;;;;;5.07;2.88;;;9.00;99.90;;;;;;4991910;28;20042;-81
2022/12/28 11:59:25;;;;;;;6.28;3.65;;;9.10;99.90;;;;;;4992349;28;20034;-81
2022/12/28 12:02:02;;;;;;;5.07;2.80;;;9.10;99.90;;;;;;4993150;28;20034;-81
2022/12/28 12:04:39;;;;;;;5.00;3.03;;;9.00;99.90;;;;;;4989969;28;20073;-81
2022/12/28 12:07:13;;;;;;;5.65;2.67;;;9.00;99.90;;;;;;4996948;28;20043;-81
2022/12/28 12:09:42;;;;;;;5.03;2.70;;;9.00;99.90;;;;;;4996317;28;20030;-80
2022/12/28 12:12:14;;;;;;;4.88;2.60;;;9.10;99.90;;;;;;4997778;28;20030;-81
2022/12/28 12:14:56;;;;;;;5.72;2.40;;;9.00;99.90;;;;;;5001226;28;20185;-82
2022/12/28 12:17:46;;;;;;;5.22;2.55;;;9.00;99.90;;;;;;5001929;28;20077;-82
2022/12/28 12:20:38;;;;;;;4.93;2.53;;;9.00;99.90;;;;;;4995857;28;20046;-84
2022/12/28 12:23:35;;;;;;;5.07;2.70;;;9.00;99.90;;;;;;4984789;28;20064;-84
2022/12/28 12:26:26;;;;;;;4.60;2.72;;;9.10;99.90;;;;;;4978494;28;20478;-85
2022/12/28 12:28:59;;;;;;;5.72;2.85;;;9.00;99.90;;;;;;4958088;28;20047;-84
2022/12/28 12:31:31;;;;;;;5.35;2.95;;;9.00;99.90;;;;;;4968138;28;20045;-85
2022/12/28 12:34:07;;;;;;;5.65;2.85;;;9.00;99.90;;;;;;4991579;28;20082;-84
2022/12/28 12:36:56;;;;;;;5.85;2.90;;;9.00;99.90;;;;;;4990520;28;20037;-85
2022/12/28 12:39:59;;;;;;;5.30;2.60;;;9.10;99.90;;;;;;4971432;28;20481;-84
2022/12/28 12:43:03;;;;;;;6.15;3.15;;;9.00;99.90;;;;;;4970797;28;20610;-85
2022/12/28 12:45:35;;;;;;;5.57;2.90;;;9.00;99.90;;;;;;4991773;28;20038;-85
2022/12/28 12:48:36;;;;;;;6.18;3.47;;;9.00;99.90;;;;;;4974203;28;20053;-85
2022/12/28 12:51:14;;;;;;;5.60;3.05;;;9.00;99.90;;;;;;4910464;29;20040;-84
2022/12/28 12:54:01;;;;;;;6.30;3.90;;;9.00;99.90;;;;;;4894894;29;20125;-84
2022/12/28 12:56:41;;;;;;;5.72;2.75;;;9.70;99.90;;;;;;4894397;29;20047;-85
2022/12/28 12:59:29;;;;;;;6.20;2.88;;;9.00;99.90;;;;;;4906054;29;20059;-84
2022/12/28 13:02:26;;;;;;;7.35;3.67;;;9.00;99.90;;;;;;4906441;29;20147;-84
2022/12/28 13:04:52;;;;;;;5.75;3.13;;;9.00;99.90;;;;;;4869166;29;20055;-85
2022/12/28 13:07:24;;;;;;;4.25;2.28;;;9.00;99.90;;;;;;4894578;29;20052;-84
2022/12/28 13:09:53;;;;;;;6.90;3.15;;;9.00;99.90;;;;;;4887504;29;20048;-85
2022/12/28 13:12:19;;;;;;;5.15;2.97;;;9.00;99.90;;;;;;4881258;29;20086;-84
2022/12/28 13:14:47;;;;;;;6.38;2.72;;;9.00;99.90;;;;;;4894905;29;20469;-85
2022/12/28 13:17:20;;;;;;;4.43;2.60;;;9.00;99.90;;;;;;4910100;29;20040;-85
2022/12/28 13:19:46;;;;;;;5.15;2.92;;;9.00;99.90;;;;;;4893386;29;20043;-84
2022/12/28 13:22:29;;;;;;;5.20;2.63;;;9.00;99.90;;;;;;4910370;29;20527;-84
2022/12/28 13:24:55;;;;;;;5.00;2.78;;;9.00;99.90;;;;;;4936173;28;20056;-85
2022/12/28 13:27:21;;;;;;;3.25;1.80;;;9.00;99.90;;;;;;4979907;28;20038;-85
2022/12/28 13:29:53;;;;;;;6.13;3.03;;;9.50;99.90;;;;;;4973282;28;20154;-85
2022/12/28 13:32:24;;;;;;;5.80;2.70;;;9.40;99.90;;;;;;4977555;28;20093;-84
2022/12/28 13:34:50;;;;;;;5.03;2.38;;;9.00;99.90;;;;;;4957402;28;20441;-86
2022/12/28 13:37:17;;;;;;;5.00;2.80;;;9.00;99.90;;;;;;4973604;28;20046;-85
2022/12/28 13:39:43;;;;;;;4.95;2.15;;;9.00;99.90;;;;;;4973542;28;20038;-85
2022/12/28 13:42:27;;;;;;;4.47;2.35;;;8.90;99.90;;;;;;4990599;28;20515;-85
2022/12/28 13:45:06;;;;;;;4.18;1.83;;;8.90;99.90;;;;;;4978297;28;20029;-85
2022/12/28 13:47:39;;;;;;;4.70;2.50;;;9.00;99.90;;;;;;4974106;28;20038;-85
2022/12/28 13:50:18;;;;;;;5.60;2.60;;;8.90;99.90;;;;;;4973381;28;20046;-85
2022/12/28 13:52:55;;;;;;;6.47;2.53;;;9.00;99.90;;;;;;4960013;28;20061;-85
2022/12/28 13:55:27;;;;;;;3.47;1.92;;;8.90;99.90;;;;;;4996555;28;20038;-84
2022/12/28 13:57:58;;;;;;;4.63;2.13;;;8.90;99.90;;;;;;4974931;28;20049;-84
2022/12/28 14:00:24;;;;;;;4.22;1.77;;;8.90;99.90;;;;;;4975967;28;20073;-84
2022/12/28 14:02:52;;;;;;;4.75;2.15;;;8.90;99.90;;;;;;4976920;28;20053;-85
2022/12/28 14:05:20;;;;;;;4.47;1.90;;;8.90;99.90;;;;;;4979772;28;20046;-85
2022/12/28 14:07:48;;;;;;;3.78;2.30;;;8.90;99.90;;;;;;4987342;28;20074;-85
2022/12/28 14:10:14;;;;;;;5.50;2.50;;;8.90;99.90;;;;;;4990448;28;20048;-85
2022/12/28 14:12:40;;;;;;;6.47;2.55;;;8.90;99.90;;;;;;4990950;28;20093;-85
2022/12/28 14:15:07;;;;;;;4.30;2.20;;;8.80;99.90;;;;;;4992198;28;20069;-85
2022/12/28 14:17:35;;;;;;;6.20;2.65;;;8.80;99.90;;;;;;4994837;28;20541;-85
2022/12/28 14:20:02;;;;;;;4.10;2.50;;;8.80;99.90;;;;;;4995279;28;20046;-85
2022/12/28 14:22:31;;;;;;;5.97;2.60;;;8.80;99.90;;;;;;4990363;28;20498;-85
2022/12/28 14:25:09;;;;;;;6.28;2.90;;;8.80;99.90;;;;;;4995999;28;20038;-84
2022/12/28 14:27:42;;;;;;;7.78;3.78;;;8.80;99.90;;;;;;4990540;28;20065;-85
2022/12/28 14:30:25;;;;;;;6.95;2.97;;;8.80;99.90;;;;;;4981121;28;21629;-85
2022/12/28 14:32:52;;;;;;;7.07;3.05;;;8.80;99.90;;;;;;4974254;28;20054;-85
2022/12/28 14:35:22;;;;;;;7.78;3.15;;;8.80;99.90;;;;;;4974849;28;20053;-84
2022/12/28 14:37:57;;;;;;;10.38;3.38;;;8.80;99.90;;;;;;4974525;28;20039;-85
2022/12/28 14:40:33;;;;;;;5.68;3.08;;;9.00;99.90;;;;;;4961226;28;20042;-85
2022/12/28 14:43:16;;;;;;;7.32;3.55;;;9.40;99.90;;;;;;4986660;28;20097;-85
2022/12/28 14:45:44;;;;;;;8.32;3.58;;;9.00;99.90;;;;;;4973645;28;20165;-85